createdAt,value
2019-02-12T12:44:49.291Z,25.570984
2019-02-12T12:44:52.156Z,30.26123
2019-02-12T12:45:01.125Z,25.450134
2019-02-12T12:45:02.320Z,29.779053
2019-02-12T12:45:11.986Z,25.339355
2019-02-12T12:45:13.146Z,31.072998
2019-02-12T12:45:22.789Z,25.26886
2019-02-12T12:45:23.978Z,32.574463
2019-02-12T12:45:33.615Z,25.198364
2019-02-12T12:45:34.798Z,35.058594
2019-02-12T12:45:44.492Z,25.137939
2019-02-12T12:45:45.655Z,33.172607
2019-02-12T12:45:55.300Z,25.087585
2019-02-12T12:45:56.450Z,32.775879
2019-02-12T12:46:06.075Z,25.067444
2019-02-12T12:46:07.249Z,33.880615
2019-02-12T12:46:16.945Z,25.01709
2019-02-12T12:46:18.089Z,32.489014
2019-02-12T12:46:28.750Z,24.976807
2019-02-12T12:46:29.911Z,32.989502
2019-02-12T12:46:39.555Z,24.936523
2019-02-12T12:46:40.735Z,31.201172
2019-02-12T12:46:51.276Z,24.916382
2019-02-12T12:46:52.483Z,30.999756
2019-02-12T12:47:02.166Z,24.866028
2019-02-12T12:47:03.341Z,31.201172
2019-02-12T12:47:13.139Z,24.835815
2019-02-12T12:47:14.215Z,30.999756
2019-02-12T12:47:23.934Z,24.815674
2019-02-12T12:47:25.084Z,30.621338
2019-02-12T12:47:34.745Z,24.785461
2019-02-12T12:47:35.901Z,30.517578
2019-02-12T12:47:45.467Z,24.735107
2019-02-12T12:47:46.632Z,31.115723
2019-02-12T12:47:56.336Z,24.714966
2019-02-12T12:47:57.509Z,30.914307
2019-02-12T12:48:07.088Z,24.674683
2019-02-12T12:48:08.262Z,30.517578
2019-02-12T12:48:17.832Z,24.64447
2019-02-12T12:48:19.030Z,30.718994
2019-02-12T12:48:28.655Z,24.634399
2019-02-12T12:48:29.852Z,30.718994
2019-02-12T12:48:40.066Z,24.594116
2019-02-12T12:48:40.674Z,30.517578
2019-02-12T12:48:50.291Z,24.594116
2019-02-12T12:48:51.461Z,32.70874
2019-02-12T12:49:02.059Z,24.563904
2019-02-12T12:49:03.238Z,32.421875
2019-02-12T12:49:12.862Z,24.553833
2019-02-12T12:49:14.030Z,31.329346
2019-02-12T12:49:23.678Z,24.523621
2019-02-12T12:49:27.255Z,31.329346
2019-02-12T12:49:35.473Z,24.51355
2019-02-12T12:49:36.650Z,31.427002
2019-02-12T12:49:46.347Z,24.563904
2019-02-12T12:49:47.538Z,39.587402
2019-02-12T12:49:59.099Z,24.553833
2019-02-12T12:49:59.851Z,35.009766
2019-02-12T12:50:09.557Z,24.553833
2019-02-12T12:50:10.713Z,32.525635
2019-02-12T12:50:21.213Z,24.533691
2019-02-12T12:50:22.565Z,33.71582
2019-02-12T12:50:37.019Z,24.553833
2019-02-12T12:50:38.231Z,31.12793
2019-02-12T12:50:52.852Z,24.553833
2019-02-12T12:50:54.144Z,31.829834
2019-02-12T12:51:03.995Z,24.563904
2019-02-12T12:51:05.245Z,31.231689
2019-02-12T12:51:19.086Z,24.523621
2019-02-12T12:51:20.302Z,33.813477
2019-02-12T12:51:36.418Z,24.664612
2019-02-12T12:51:37.640Z,37.579346
2019-02-12T12:51:53.199Z,24.966736
2019-02-12T12:51:54.396Z,42.803955
2019-02-12T12:52:04.301Z,25.490417
2019-02-12T12:52:05.644Z,45.959473
2019-02-12T12:52:21.838Z,25.762329
2019-02-12T12:52:23.159Z,34.216309
2019-02-12T12:54:59.813Z,26.225586
2019-02-12T12:55:14.741Z,26.165161
2019-02-12T12:55:25.979Z,26.134949
2019-02-12T12:55:37.142Z,26.094666
2019-02-12T12:55:51.571Z,26.014099
2019-02-12T12:56:06.523Z,25.863037
2019-02-12T12:56:21.467Z,25.661621
2019-02-12T12:56:36.367Z,25.480347
2019-02-12T12:56:51.534Z,25.299072
2019-02-12T12:57:06.221Z,25.107727
2019-02-12T12:57:21.076Z,24.916382
2019-02-12T12:57:32.576Z,24.714966
2019-02-12T12:57:48.129Z,24.553833
2019-02-12T12:58:06.120Z,24.342346
2019-02-12T12:58:23.044Z,24.040222
2019-02-12T12:58:34.132Z,23.617249
2019-02-12T12:58:47.735Z,23.063354
2019-02-12T12:59:13.188Z,21.633301
2019-02-12T12:59:24.001Z,16.013794
2019-02-12T12:59:34.785Z,13.647156
2019-02-12T12:59:46.589Z,11.81427
2019-02-12T12:59:57.333Z,10.948181
2019-02-12T13:00:09.130Z,10.646057
2019-02-12T13:00:19.940Z,10.263367
2019-02-12T13:00:30.681Z,10.061951
2019-02-12T13:00:41.447Z,9.67926
2019-02-12T13:00:52.990Z,9.095154
2019-02-12T13:01:06.100Z,8.934021
2019-02-12T13:01:17.010Z,8.984375
2019-02-12T13:01:27.862Z,8.611755
2019-02-12T13:01:38.679Z,8.370056
2019-02-12T13:01:49.481Z,8.28949
2019-02-12T13:02:00.299Z,8.218994
2019-02-12T13:02:12.066Z,8.03772
2019-02-12T13:02:22.907Z,7.91687
2019-02-12T13:02:33.676Z,8.057861
2019-02-12T13:02:44.489Z,8.269348
2019-02-12T13:02:56.339Z,8.470764
2019-02-12T13:03:07.126Z,8.631897
2019-02-12T13:03:18.865Z,8.601685
2019-02-12T13:03:29.583Z,8.571472
2019-02-12T13:03:40.427Z,8.732605
2019-02-12T13:03:51.250Z,8.752747
2019-02-12T13:04:01.980Z,8.430481
2019-02-12T13:04:12.735Z,8.178711
2019-02-12T13:04:23.489Z,7.997437
2019-02-12T13:04:34.268Z,7.806091
2019-02-12T13:04:45.044Z,7.624817
2019-02-12T13:04:56.642Z,7.524109
2019-02-12T13:05:08.436Z,7.503967
2019-02-12T13:05:20.806Z,7.423401
2019-02-12T13:05:31.637Z,7.423401
2019-02-12T13:05:42.486Z,7.342834
2019-02-12T13:05:53.302Z,7.373047
2019-02-12T13:06:04.139Z,7.816162
2019-02-12T13:06:14.920Z,8.762817
2019-02-12T13:06:25.681Z,9.487915
2019-02-12T13:06:36.443Z,10.172729
2019-02-12T13:06:47.182Z,10.797119
2019-02-12T13:06:57.952Z,11.411438
2019-02-12T13:07:08.842Z,11.975403
2019-02-12T13:07:20.656Z,12.539368
2019-02-12T13:07:32.475Z,13.032837
2019-02-12T13:07:43.276Z,13.405457
2019-02-12T13:07:56.008Z,13.838501
2019-02-12T13:08:06.746Z,14.120483
2019-02-12T13:08:17.498Z,14.442749
2019-02-12T13:08:28.235Z,14.694519
2019-02-12T13:08:39.262Z,14.936218
2019-02-12T13:08:49.775Z,15.177917
2019-02-12T13:09:00.521Z,15.399475
2019-02-12T13:09:12.011Z,15.671387
2019-02-12T13:09:22.715Z,15.933228
2019-02-12T13:09:34.513Z,16.21521
2019-02-12T13:09:45.285Z,16.33606
2019-02-12T13:09:56.116Z,16.416626
2019-02-12T13:10:06.978Z,16.507263
2019-02-12T13:10:17.725Z,16.658325
2019-02-12T13:10:28.817Z,16.537476
2019-02-12T13:10:41.618Z,15.046997
2019-02-12T13:10:53.562Z,13.465881
2019-02-12T13:11:04.385Z,12.045898
2019-02-12T13:11:15.400Z,11.159668
2019-02-12T13:11:26.699Z,10.67627
2019-02-12T13:11:36.876Z,10.263367
2019-02-12T13:11:47.656Z,9.880676
2019-02-12T13:11:59.069Z,9.669189
2019-02-12T13:12:09.934Z,9.447632
2019-02-12T13:12:20.723Z,9.266357
2019-02-12T13:12:33.697Z,9.195862
2019-02-12T13:12:44.645Z,9.195862
2019-02-12T13:12:55.478Z,9.0448
2019-02-12T13:13:06.480Z,9.064941
2019-02-12T13:13:17.267Z,9.216003
2019-02-12T13:13:29.082Z,9.306641
2019-02-12T13:13:40.947Z,9.236145
2019-02-12T13:13:56.188Z,8.913879
2019-02-12T13:14:07.188Z,8.641968
2019-02-12T13:14:17.958Z,8.601685
2019-02-12T13:14:28.797Z,8.460693
2019-02-12T13:14:40.617Z,8.359985
2019-02-12T13:14:51.406Z,8.28949
2019-02-12T13:15:02.227Z,8.279419
2019-02-12T13:15:13.024Z,8.249207
2019-02-12T13:15:24.781Z,8.198853
2019-02-12T13:15:35.586Z,8.067932
2019-02-12T13:15:47.160Z,7.78595
2019-02-12T13:15:57.941Z,8.339844
2019-02-12T13:16:09.744Z,9.195862
2019-02-12T13:16:20.515Z,10.313721
2019-02-12T13:16:40.611Z,11.512146
2019-02-12T13:17:03.187Z,14.342041
2019-02-12T13:17:14.179Z,15.96344
2019-02-12T13:17:31.520Z,16.688538
2019-02-12T13:17:46.539Z,17.554626
2019-02-12T13:18:02.967Z,18.088379
2019-02-12T13:18:14.104Z,18.60199
2019-02-12T13:18:26.091Z,18.904114
2019-02-12T13:18:41.040Z,19.23645
2019-02-12T13:18:55.465Z,19.60907
2019-02-12T13:19:09.821Z,19.921265
2019-02-12T13:19:21.199Z,20.233459
2019-02-12T13:19:39.024Z,20.414734
2019-02-12T13:19:51.135Z,20.636292
2019-02-12T13:20:02.425Z,20.757141
2019-02-12T13:20:13.665Z,20.877991
2019-02-12T13:20:29.410Z,21.029053
2019-02-12T13:20:41.157Z,21.210327
2019-02-12T13:20:55.929Z,21.331177
2019-02-12T13:21:06.829Z,21.462097
2019-02-12T13:21:23.297Z,21.562805
2019-02-12T13:21:34.390Z,21.683655
2019-02-12T13:21:48.471Z,21.774292
2019-02-12T13:22:04.221Z,21.905212
2019-02-12T13:22:20.942Z,21.985779
2019-02-12T13:22:33.210Z,22.116699
2019-02-12T13:22:47.975Z,22.207336
2019-02-12T13:22:59.237Z,22.287903
2019-02-12T13:23:15.061Z,22.348328
2019-02-12T13:23:32.019Z,22.438965
2019-02-12T13:23:47.100Z,22.50946
2019-02-12T13:24:02.701Z,22.600098
2019-02-12T13:24:13.601Z,22.660522
2019-02-12T13:24:28.382Z,22.75116
2019-02-12T13:24:41.744Z,22.821655
2019-02-12T13:24:56.491Z,22.861938
2019-02-12T13:25:10.189Z,22.912292
2019-02-12T13:25:21.895Z,22.962646
2019-02-12T13:25:33.029Z,22.992859
2019-02-12T13:25:48.779Z,23.00293
2019-02-12T13:26:00.609Z,23.063354
2019-02-12T13:26:15.728Z,23.113708
2019-02-12T13:26:26.868Z,23.153992
2019-02-12T13:26:39.028Z,23.194275
2019-02-12T13:26:54.486Z,23.224487
2019-02-12T13:27:05.473Z,23.264771
2019-02-12T13:27:16.971Z,23.264771
2019-02-12T13:27:30.985Z,23.305054
2019-02-12T13:27:41.933Z,23.305054
2019-02-12T13:27:53.378Z,23.315125
2019-02-12T13:28:08.095Z,23.405762
2019-02-12T13:28:19.248Z,23.566895
2019-02-12T13:28:35.255Z,23.667603
2019-02-12T13:28:46.603Z,23.838806
2019-02-12T13:28:58.173Z,23.969727
2019-02-12T13:29:09.537Z,24.090576
2019-02-12T13:29:21.084Z,24.151001
2019-02-12T13:29:34.002Z,24.181213
2019-02-12T13:29:45.393Z,24.181213
2019-02-12T13:30:04.428Z,24.161072
2019-02-12T13:30:15.717Z,24.151001
2019-02-12T13:30:30.500Z,24.14093
2019-02-12T13:30:44.973Z,24.080505
2019-02-12T13:31:00.905Z,24.060364
2019-02-12T13:31:16.200Z,24.020081
2019-02-12T13:31:27.353Z,23.999939
2019-02-12T13:31:38.375Z,23.969727
2019-02-12T13:31:53.225Z,23.959656
2019-02-12T13:32:04.437Z,23.929443
2019-02-12T13:32:19.416Z,23.919373
2019-02-12T13:32:36.697Z,23.899231
2019-02-12T13:32:53.691Z,23.869019
2019-02-12T13:33:06.306Z,23.858948
2019-02-12T13:33:18.276Z,23.818665
2019-02-12T13:33:28.705Z,23.818665
2019-02-12T13:33:45.612Z,23.818665
2019-02-12T13:34:01.934Z,23.788452
2019-02-12T13:34:14.111Z,23.778381
2019-02-12T13:34:30.442Z,23.768311
2019-02-12T13:34:45.710Z,23.768311
2019-02-12T13:34:58.098Z,23.748169
2019-02-12T13:35:09.893Z,23.748169
2019-02-12T13:35:21.530Z,23.748169
2019-02-12T13:35:32.856Z,23.748169
2019-02-12T13:35:44.141Z,23.768311
2019-02-12T13:35:55.319Z,23.768311
2019-02-12T13:36:11.949Z,23.778381
2019-02-12T13:36:26.956Z,23.788452
2019-02-12T13:36:39.068Z,23.818665
2019-02-12T13:36:55.018Z,23.838806
2019-02-12T13:37:06.165Z,23.818665
2019-02-12T13:37:19.053Z,23.838806
2019-02-12T13:37:30.939Z,23.838806
2019-02-12T13:37:45.883Z,23.869019
2019-02-12T13:37:57.777Z,23.919373
2019-02-12T13:38:14.061Z,23.959656
2019-02-12T13:38:26.877Z,23.999939
2019-02-12T13:38:39.698Z,24.020081
2019-02-12T13:38:54.521Z,24.060364
2019-02-12T13:39:09.555Z,24.090576
2019-02-12T13:39:25.581Z,24.120789
2019-02-12T13:39:41.338Z,24.151001
2019-02-12T13:39:57.651Z,24.151001
2019-02-12T13:40:14.964Z,24.161072
2019-02-12T13:40:31.467Z,24.151001
2019-02-12T13:40:47.971Z,24.181213
2019-02-12T13:41:05.049Z,24.181213
2019-02-12T13:41:21.580Z,24.191284
2019-02-12T13:41:38.099Z,24.211426
2019-02-12T13:41:54.025Z,24.241638
2019-02-12T13:42:05.177Z,24.291992
2019-02-12T13:42:16.415Z,24.332275
2019-02-12T13:42:30.318Z,24.342346
2019-02-12T13:42:41.647Z,24.372559
2019-02-12T13:42:57.910Z,24.412842
2019-02-12T13:43:13.079Z,24.422913
2019-02-12T13:43:30.054Z,24.422913
2019-02-12T13:43:45.092Z,24.3927
2019-02-12T13:44:00.883Z,24.412842
2019-02-12T13:44:17.966Z,24.422913
2019-02-12T13:44:30.191Z,24.453125
2019-02-12T13:44:42.097Z,24.483337
2019-02-12T13:44:52.791Z,24.51355
2019-02-12T13:45:04.271Z,24.553833
2019-02-12T13:45:15.366Z,25.228577
2019-02-12T13:45:26.716Z,27.90741
2019-02-12T13:45:38.103Z,30.223694
2019-02-12T13:45:49.599Z,31.784668
2019-02-12T13:46:00.900Z,32.952881
2019-02-12T13:46:12.705Z,33.889465
2019-02-12T13:46:24.075Z,34.584351
2019-02-12T13:46:41.146Z,35.148315
2019-02-12T13:46:52.446Z,34.876404
2019-02-12T13:47:07.780Z,34.241943
2019-02-12T13:47:22.238Z,33.023376
2019-02-12T13:47:33.991Z,31.845093
2019-02-12T13:47:45.043Z,31.009216
2019-02-12T13:48:00.074Z,30.30426
2019-02-12T13:48:17.696Z,29.41803
2019-02-12T13:48:33.151Z,28.572083
2019-02-12T13:48:49.653Z,27.977905
2019-02-12T13:49:04.736Z,27.40387
2019-02-12T13:49:21.698Z,26.960754
2019-02-12T13:49:37.962Z,26.507568
2019-02-12T13:49:54.978Z,26.185303
2019-02-12T13:50:10.413Z,25.913391
2019-02-12T13:50:28.170Z,25.742188
2019-02-12T13:50:43.443Z,25.530701
2019-02-12T13:50:59.695Z,25.440063
2019-02-12T13:51:16.446Z,25.349426
2019-02-12T13:51:28.994Z,25.26886
2019-02-12T13:51:45.654Z,25.228577
2019-02-12T13:52:02.201Z,25.117798
2019-02-12T13:52:18.579Z,25.037231
2019-02-12T13:52:33.520Z,24.936523
2019-02-12T13:52:44.653Z,24.916382
2019-02-12T13:53:01.502Z,24.866028
2019-02-12T13:53:16.437Z,24.815674
2019-02-12T13:53:33.413Z,24.785461
2019-02-12T13:53:47.738Z,24.735107
2019-02-12T13:54:05.241Z,24.704895
2019-02-12T13:54:21.442Z,24.674683
2019-02-12T13:54:36.920Z,24.634399
2019-02-12T13:54:53.711Z,24.594116
2019-02-12T13:55:07.895Z,24.533691
2019-02-12T13:55:22.909Z,24.51355
2019-02-12T13:55:37.939Z,24.523621
2019-02-12T13:55:54.599Z,0
